createdAt,value
2022-10-09T00:02:25.774Z,83.45
2022-10-09T00:05:28.040Z,83.27
2022-10-09T00:08:44.753Z,82.99
2022-10-09T00:11:46.444Z,82.76
2022-10-09T00:15:00.765Z,82.40
2022-10-09T00:18:02.594Z,82.39
2022-10-09T00:21:29.796Z,82.76
2022-10-09T00:24:37.776Z,83.09
2022-10-09T00:27:52.793Z,83.22
2022-10-09T00:30:55.156Z,82.90
2022-10-09T00:34:09.768Z,82.75
2022-10-09T00:37:17.795Z,82.86
2022-10-09T00:40:26.339Z,82.55
2022-10-09T00:43:46.814Z,82.54
2022-10-09T00:46:55.434Z,82.70
2022-10-09T00:50:09.820Z,82.83
2022-10-09T00:53:27.814Z,82.79
2022-10-09T00:56:29.620Z,82.77
2022-10-09T00:59:46.769Z,82.80
2022-10-09T01:03:01.808Z,83.19
2022-10-09T01:06:31.805Z,83.48
2022-10-09T01:09:53.800Z,83.62
2022-10-09T01:13:22.358Z,83.70
2022-10-09T01:16:35.806Z,83.70
2022-10-09T01:20:09.806Z,83.56
2022-10-09T01:23:43.444Z,83.82
2022-10-09T01:27:00.791Z,83.70
2022-10-09T01:30:18.861Z,83.98
2022-10-09T01:33:20.642Z,84.35
2022-10-09T01:36:36.845Z,84.43
2022-10-09T01:39:53.813Z,84.41
2022-10-09T01:43:02.699Z,84.93
2022-10-09T01:46:36.006Z,84.91
2022-10-09T01:49:56.819Z,84.96
2022-10-09T01:53:09.555Z,84.86
2022-10-09T01:56:23.854Z,84.87
2022-10-09T01:59:39.471Z,84.87
2022-10-09T02:02:49.111Z,85.05
2022-10-09T02:05:58.208Z,85.34
2022-10-09T02:09:07.827Z,85.07
2022-10-09T02:12:18.798Z,85.47
2022-10-09T02:15:28.885Z,85.73
2022-10-09T02:18:49.846Z,85.68
2022-10-09T02:22:13.867Z,85.56
2022-10-09T02:25:28.885Z,85.66
2022-10-09T02:28:39.076Z,85.84
2022-10-09T02:31:48.430Z,86.21
2022-10-09T02:34:57.863Z,86.50
2022-10-09T02:38:12.815Z,86.62
2022-10-09T02:41:28.841Z,86.98
2022-10-09T02:44:30.582Z,87.12
2022-10-09T02:47:44.870Z,87.18
2022-10-09T02:50:46.600Z,87.12
2022-10-09T02:54:01.866Z,87.14
2022-10-09T02:57:10.405Z,87.28
2022-10-09T03:00:18.857Z,87.24
2022-10-09T03:03:27.360Z,87.01
2022-10-09T03:06:40.055Z,87.29
2022-10-09T03:09:54.841Z,87.41
2022-10-09T03:12:56.656Z,87.63
2022-10-09T03:16:12.996Z,87.50
2022-10-09T03:19:21.843Z,87.80
2022-10-09T03:22:37.110Z,88.00
2022-10-09T03:25:45.839Z,88.30
2022-10-09T03:28:55.826Z,88.30
2022-10-09T03:32:10.988Z,88.50
2022-10-09T03:35:19.502Z,88.49
2022-10-09T03:38:33.920Z,88.83
2022-10-09T03:41:41.924Z,89.07
2022-10-09T03:44:50.396Z,89.50
2022-10-09T03:47:58.863Z,89.69
2022-10-09T03:51:07.388Z,90.67
2022-10-09T03:54:21.868Z,90.46
2022-10-09T03:57:30.606Z,90.98
2022-10-09T04:00:45.951Z,91.15
2022-10-09T04:03:53.884Z,90.37
2022-10-09T04:07:08.894Z,89.75
2022-10-09T04:10:11.080Z,88.98
2022-10-09T04:13:25.912Z,88.62
2022-10-09T04:16:33.939Z,88.57
2022-10-09T04:19:42.445Z,88.56
2022-10-09T04:23:03.883Z,88.48
2022-10-09T04:26:12.904Z,88.60
2022-10-09T04:29:27.879Z,88.62
2022-10-09T04:32:36.552Z,88.45
2022-10-09T04:35:48.917Z,88.62
2022-10-09T04:39:03.893Z,88.17
2022-10-09T04:42:12.554Z,88.11
2022-10-09T04:45:20.934Z,88.19
2022-10-09T04:48:35.911Z,88.29
2022-10-09T04:51:43.899Z,88.36
2022-10-09T04:54:52.508Z,88.59
2022-10-09T04:58:00.998Z,88.54
2022-10-09T05:01:20.030Z,88.63
2022-10-09T05:04:21.893Z,88.36
2022-10-09T05:07:36.927Z,88.35
2022-10-09T05:10:51.915Z,88.15
2022-10-09T05:13:55.640Z,88.08
2022-10-09T05:17:14.165Z,87.88
2022-10-09T05:20:29.190Z,87.52
2022-10-09T05:23:43.921Z,87.43
2022-10-09T05:26:45.643Z,87.58
2022-10-09T05:29:59.927Z,87.69
2022-10-09T05:33:08.687Z,87.82
2022-10-09T05:36:16.989Z,87.62
2022-10-09T05:39:25.620Z,87.55
2022-10-09T05:42:39.931Z,87.67
2022-10-09T05:45:47.945Z,87.41
2022-10-09T05:48:58.911Z,87.23
2022-10-09T05:52:13.973Z,87.40
2022-10-09T05:55:22.509Z,87.35
2022-10-09T05:58:36.951Z,87.31
2022-10-09T06:01:55.116Z,87.28
2022-10-09T06:04:56.907Z,87.29
2022-10-09T06:08:11.983Z,87.30
2022-10-09T06:11:17.224Z,87.19
2022-10-09T06:14:31.926Z,87.14
2022-10-09T06:17:33.939Z,87.22
2022-10-09T06:21:02.950Z,87.53
2022-10-09T06:24:22.261Z,87.30
2022-10-09T06:27:39.927Z,87.22
2022-10-09T06:30:41.726Z,87.40
2022-10-09T06:33:56.983Z,87.09
2022-10-09T06:36:58.727Z,86.76
2022-10-09T06:40:13.959Z,86.09
2022-10-09T06:43:28.978Z,85.67
2022-10-09T06:46:40.805Z,85.01
2022-10-09T06:49:56.003Z,84.63
2022-10-09T06:53:03.978Z,84.32
2022-10-09T06:56:13.083Z,83.94
2022-10-09T06:59:27.974Z,82.80
2022-10-09T07:02:40.459Z,82.08
2022-10-09T07:05:50.963Z,82.08
2022-10-09T07:09:02.436Z,81.14
2022-10-09T07:12:11.032Z,80.64
2022-10-09T07:15:19.534Z,80.20
2022-10-09T07:18:34.015Z,79.10
2022-10-09T07:21:46.226Z,78.60
2022-10-09T07:25:01.179Z,78.03
2022-10-09T07:28:03.061Z,76.64
2022-10-09T07:31:19.038Z,75.74
2022-10-09T07:34:27.026Z,74.34
2022-10-09T07:37:35.583Z,73.54
2022-10-09T07:40:50.001Z,71.75
2022-10-09T07:43:59.051Z,70.62
2022-10-09T07:47:14.108Z,69.85
2022-10-09T07:50:23.062Z,68.82
2022-10-09T07:53:38.059Z,67.30
2022-10-09T07:56:53.027Z,66.79
2022-10-09T07:59:54.724Z,67.03
2022-10-09T08:03:09.083Z,67.36
2022-10-09T08:06:10.898Z,67.80
2022-10-09T08:09:26.015Z,67.96
2022-10-09T08:12:34.039Z,69.32
2022-10-09T08:15:43.850Z,69.20
2022-10-09T08:18:51.991Z,69.10
2022-10-09T08:22:07.316Z,69.28
2022-10-09T08:25:16.078Z,68.48
2022-10-09T08:28:25.071Z,67.98
2022-10-09T08:31:35.071Z,67.14
2022-10-09T08:34:43.554Z,66.10
2022-10-09T08:37:52.007Z,65.72
2022-10-09T08:41:15.029Z,65.62
2022-10-09T08:44:29.256Z,64.78
2022-10-09T08:47:54.119Z,64.44
2022-10-09T08:50:58.770Z,64.16
2022-10-09T08:54:31.067Z,64.25
2022-10-09T08:57:39.889Z,64.15
2022-10-09T09:01:09.086Z,63.38
2022-10-09T09:04:36.004Z,61.81
2022-10-09T09:08:07.054Z,61.09
2022-10-09T09:11:28.752Z,60.69
2022-10-09T09:15:05.048Z,60.81
2022-10-09T09:18:32.306Z,60.13
2022-10-09T09:21:55.043Z,59.93
2022-10-09T09:24:58.620Z,59.34
2022-10-09T09:28:27.110Z,57.95
2022-10-09T09:31:34.749Z,55.16
2022-10-09T09:34:49.095Z,56.02
2022-10-09T09:37:50.990Z,55.68
2022-10-09T09:41:06.082Z,55.61
2022-10-09T09:44:17.139Z,56.12
2022-10-09T09:47:34.527Z,56.26
2022-10-09T09:50:52.932Z,56.31
2022-10-09T09:54:24.079Z,55.75
2022-10-09T09:57:41.124Z,54.72
2022-10-09T10:01:00.281Z,54.66
2022-10-09T10:04:10.096Z,53.57
2022-10-09T10:07:29.932Z,53.60
2022-10-09T10:10:39.089Z,54.22
2022-10-09T10:13:49.112Z,55.61
2022-10-09T10:17:00.090Z,55.47
2022-10-09T10:20:15.115Z,54.72
2022-10-09T10:23:36.379Z,56.15
2022-10-09T10:26:50.087Z,54.72
2022-10-09T10:30:09.112Z,53.32
2022-10-09T10:33:21.108Z,53.64
2022-10-09T10:36:36.156Z,54.50
2022-10-09T10:39:45.863Z,54.02
2022-10-09T10:43:21.100Z,52.94
2022-10-09T10:46:44.121Z,53.70
2022-10-09T10:49:53.232Z,54.99
2022-10-09T10:53:23.159Z,54.85
2022-10-09T10:56:40.197Z,55.05
2022-10-09T11:00:10.110Z,53.88
2022-10-09T11:03:41.807Z,52.90
2022-10-09T11:07:09.125Z,54.50
2022-10-09T11:10:38.139Z,55.11
2022-10-09T11:14:01.910Z,54.42
2022-10-09T11:17:37.140Z,55.73
2022-10-09T11:21:10.113Z,55.15
2022-10-09T11:25:05.146Z,54.62
2022-10-09T11:28:19.386Z,55.02
2022-10-09T11:31:42.198Z,55.14
2022-10-09T11:35:14.129Z,53.63
2022-10-09T11:38:27.115Z,52.33
2022-10-09T11:41:43.160Z,53.21
2022-10-09T11:45:12.125Z,51.05
2022-10-09T11:48:48.023Z,47.87
2022-10-09T11:52:09.188Z,48.43
2022-10-09T11:55:23.690Z,40.05
2022-10-09T11:58:32.136Z,36.74
2022-10-09T12:01:42.165Z,38.73
2022-10-09T12:04:54.847Z,33.48
2022-10-09T12:08:26.262Z,30.26
2022-10-09T12:11:36.156Z,30.60
2022-10-09T12:14:47.999Z,35.60
2022-10-09T12:18:03.188Z,38.65
2022-10-09T12:21:24.664Z,35.42
2022-10-09T12:24:51.225Z,37.12
2022-10-09T12:28:07.457Z,41.68
2022-10-09T12:31:26.213Z,43.23
2022-10-09T12:34:48.211Z,47.45
2022-10-09T12:38:03.202Z,48.68
2022-10-09T12:41:20.277Z,50.17
2022-10-09T12:44:35.969Z,50.21
2022-10-09T12:47:50.199Z,51.20
2022-10-09T12:50:53.188Z,47.91
2022-10-09T12:54:15.220Z,47.99
2022-10-09T12:57:31.175Z,44.09
2022-10-09T13:00:40.422Z,44.90
2022-10-09T13:03:58.541Z,47.38
2022-10-09T13:07:18.605Z,47.25
2022-10-09T13:10:36.189Z,49.58
2022-10-09T13:13:45.332Z,51.28
2022-10-09T13:17:00.319Z,51.83
2022-10-09T13:20:25.371Z,51.62
2022-10-09T13:23:48.024Z,52.01
2022-10-09T13:26:49.760Z,52.58
2022-10-09T13:30:04.279Z,53.11
2022-10-09T13:33:20.236Z,53.16
2022-10-09T13:36:35.244Z,53.11
2022-10-09T13:39:43.832Z,53.28
2022-10-09T13:43:02.251Z,53.97
2022-10-09T13:46:10.824Z,53.85
2022-10-09T13:49:19.220Z,53.70
2022-10-09T13:52:34.266Z,53.54
2022-10-09T13:55:49.220Z,54.57
2022-10-09T13:58:58.331Z,54.57
2022-10-09T14:02:07.564Z,54.76
2022-10-09T14:05:15.826Z,54.67
2022-10-09T14:08:32.504Z,54.76
2022-10-09T14:11:34.796Z,55.20
2022-10-09T14:14:49.254Z,54.89
2022-10-09T14:17:51.376Z,54.87
2022-10-09T14:21:06.283Z,55.01
2022-10-09T14:24:14.593Z,55.13
2022-10-09T14:27:29.337Z,55.41
2022-10-09T14:30:38.296Z,55.52
2022-10-09T14:33:48.354Z,55.37
2022-10-09T14:36:57.295Z,55.61
2022-10-09T14:40:12.267Z,55.11
2022-10-09T14:43:20.276Z,55.14
2022-10-09T14:46:30.047Z,55.07
2022-10-09T14:49:38.284Z,54.99
2022-10-09T14:52:47.018Z,54.57
2022-10-09T14:55:55.302Z,54.42
2022-10-09T14:59:05.362Z,54.37
2022-10-09T15:02:22.296Z,54.30
2022-10-09T15:05:30.903Z,54.39
2022-10-09T15:08:41.314Z,54.44
2022-10-09T15:11:56.283Z,55.00
2022-10-09T15:14:58.030Z,55.29
2022-10-09T15:18:12.312Z,55.71
2022-10-09T15:21:37.278Z,56.07
2022-10-09T15:24:39.057Z,56.18
2022-10-09T15:27:55.060Z,56.07
2022-10-09T15:31:07.304Z,55.99
2022-10-09T15:34:18.170Z,56.25
2022-10-09T15:37:33.486Z,56.65
2022-10-09T15:40:50.462Z,56.94
2022-10-09T15:44:01.066Z,57.37
2022-10-09T15:47:09.305Z,57.57
2022-10-09T15:50:20.424Z,57.91
2022-10-09T15:53:30.331Z,58.36
2022-10-09T15:56:45.333Z,58.52
2022-10-09T15:59:47.172Z,58.53
2022-10-09T16:03:02.346Z,58.40
2022-10-09T16:06:14.283Z,58.69
2022-10-09T16:09:30.383Z,58.09
2022-10-09T16:12:32.143Z,58.27
2022-10-09T16:15:48.342Z,58.58
2022-10-09T16:18:51.244Z,58.77
2022-10-09T16:22:06.310Z,58.85
2022-10-09T16:25:21.302Z,58.30
2022-10-09T16:28:30.844Z,58.58
2022-10-09T16:31:42.300Z,58.54
2022-10-09T16:34:50.888Z,58.50
2022-10-09T16:37:59.339Z,58.57
2022-10-09T16:41:19.381Z,58.28
2022-10-09T16:44:28.348Z,58.53
2022-10-09T16:47:36.963Z,58.75
2022-10-09T16:50:47.362Z,59.01
2022-10-09T16:53:59.423Z,59.16
2022-10-09T16:57:07.347Z,58.86
2022-10-09T17:00:19.374Z,58.48
2022-10-09T17:03:28.347Z,58.28
2022-10-09T17:06:46.363Z,58.74
2022-10-09T17:09:48.194Z,58.76
2022-10-09T17:13:10.456Z,58.21
2022-10-09T17:16:28.347Z,57.72
2022-10-09T17:19:44.392Z,57.27
2022-10-09T17:22:52.661Z,57.42
2022-10-09T17:26:17.388Z,57.45
2022-10-09T17:29:25.374Z,57.22
2022-10-09T17:32:33.888Z,57.25
2022-10-09T17:35:48.342Z,57.50
2022-10-09T17:38:50.739Z,57.15
2022-10-09T17:42:05.359Z,57.38
2022-10-09T17:45:08.576Z,57.68
2022-10-09T17:48:24.350Z,57.48
2022-10-09T17:51:39.378Z,57.50
2022-10-09T17:54:48.031Z,57.87
2022-10-09T17:57:56.424Z,57.68
2022-10-09T18:01:07.428Z,58.18
2022-10-09T18:04:21.386Z,58.47
2022-10-09T18:07:30.117Z,58.45
2022-10-09T18:10:38.430Z,58.26
2022-10-09T18:13:47.520Z,58.42
2022-10-09T18:17:02.375Z,58.54
2022-10-09T18:20:11.393Z,58.66
2022-10-09T18:23:26.660Z,58.46
2022-10-09T18:26:35.430Z,58.67
2022-10-09T18:29:44.017Z,58.77
2022-10-09T18:32:52.842Z,58.48
2022-10-09T18:36:12.419Z,58.62
2022-10-09T18:39:14.950Z,59.02
2022-10-09T18:42:29.455Z,59.25
2022-10-09T18:45:31.541Z,59.59
2022-10-09T18:48:47.403Z,59.96
2022-10-09T18:52:03.407Z,60.26
2022-10-09T18:55:14.952Z,60.36
2022-10-09T18:58:23.462Z,60.57
2022-10-09T19:01:32.210Z,60.92
2022-10-09T19:04:47.479Z,60.73
2022-10-09T19:07:56.174Z,60.91
2022-10-09T19:11:04.455Z,61.07
2022-10-09T19:14:13.928Z,61.43
2022-10-09T19:17:22.444Z,61.29
2022-10-09T19:20:40.473Z,61.31
2022-10-09T19:23:50.843Z,62.12
2022-10-09T19:27:06.420Z,61.52
2022-10-09T19:30:09.011Z,61.86
2022-10-09T19:33:24.494Z,62.37
2022-10-09T19:36:26.259Z,62.61
2022-10-09T19:39:41.437Z,63.12
2022-10-09T19:42:50.113Z,63.59
2022-10-09T19:46:09.503Z,63.79
2022-10-09T19:49:18.212Z,64.19
2022-10-09T19:52:32.486Z,64.30
2022-10-09T19:55:41.226Z,64.56
2022-10-09T19:58:51.443Z,64.70
2022-10-09T20:02:00.036Z,64.81
2022-10-09T20:05:08.479Z,64.91
2022-10-09T20:08:17.444Z,64.55
2022-10-09T20:11:26.470Z,64.75
2022-10-09T20:14:41.427Z,65.11
2022-10-09T20:17:50.026Z,65.72
2022-10-09T20:21:04.431Z,65.55
2022-10-09T20:24:12.752Z,64.07
2022-10-09T20:27:27.473Z,63.84
2022-10-09T20:30:36.060Z,64.24
2022-10-09T20:33:54.459Z,63.34
2022-10-09T20:36:56.178Z,62.39
2022-10-09T20:40:11.476Z,61.17
2022-10-09T20:43:22.643Z,61.26
2022-10-09T20:46:34.693Z,60.73
2022-10-09T20:49:43.550Z,61.24
2022-10-09T20:52:52.527Z,60.66
2022-10-09T20:56:07.485Z,60.38
2022-10-09T20:59:17.266Z,60.14
2022-10-09T21:02:25.540Z,60.51
2022-10-09T21:05:46.482Z,60.43
2022-10-09T21:08:55.494Z,60.26
2022-10-09T21:12:10.494Z,60.69
2022-10-09T21:15:12.251Z,59.84
2022-10-09T21:18:26.496Z,58.74
2022-10-09T21:21:29.879Z,59.53
2022-10-09T21:24:51.488Z,59.29
2022-10-09T21:27:59.542Z,58.18
2022-10-09T21:31:09.375Z,58.43
2022-10-09T21:34:24.525Z,58.67
2022-10-09T21:37:35.605Z,59.70
2022-10-09T21:40:46.701Z,59.25
2022-10-09T21:44:01.491Z,59.98
2022-10-09T21:47:09.536Z,59.85
2022-10-09T21:50:18.177Z,59.84
2022-10-09T21:53:26.532Z,60.29
2022-10-09T21:56:35.322Z,60.63
2022-10-09T21:59:43.501Z,60.50
2022-10-09T22:02:52.410Z,60.59
2022-10-09T22:06:17.779Z,60.60
2022-10-09T22:09:27.515Z,59.97
2022-10-09T22:12:36.127Z,60.66
2022-10-09T22:15:51.597Z,60.32
2022-10-09T22:18:59.511Z,59.89
2022-10-09T22:22:08.250Z,59.11
2022-10-09T22:25:29.527Z,58.07
2022-10-09T22:28:31.818Z,57.27
2022-10-09T22:31:46.563Z,57.56
2022-10-09T22:34:57.529Z,58.04
2022-10-09T22:38:12.565Z,59.42
2022-10-09T22:41:18.196Z,58.06
2022-10-09T22:44:32.533Z,58.33
2022-10-09T22:47:41.087Z,58.59
2022-10-09T22:50:55.507Z,58.63
2022-10-09T22:54:04.909Z,57.66
2022-10-09T22:57:19.528Z,57.82
2022-10-09T23:00:28.196Z,57.80
2022-10-09T23:03:36.515Z,57.56
2022-10-09T23:06:45.935Z,57.34
2022-10-09T23:09:54.532Z,57.79
2022-10-09T23:13:03.077Z,57.68
2022-10-09T23:16:18.623Z,57.34
2022-10-09T23:19:27.151Z,57.00
2022-10-09T23:22:41.537Z,57.21
2022-10-09T23:25:56.615Z,57.28
2022-10-09T23:29:14.526Z,57.04
2022-10-09T23:32:23.197Z,56.49
2022-10-09T23:35:38.555Z,56.19
2022-10-09T23:38:41.022Z,56.65
2022-10-09T23:41:55.554Z,55.69
2022-10-09T23:44:57.352Z,55.87
2022-10-09T23:48:11.567Z,55.62
2022-10-09T23:51:14.975Z,54.88
2022-10-09T23:54:29.587Z,55.77
2022-10-09T23:57:44.647Z,55.19
